Baker, Oregon
Current Conditions -  °F | °C
As of 10:53 AM on Friday 31 Oct 2014 (Local Time) from KBKE Reporting Station
Scattered Clouds Scattered Clouds  
Wind Chill: 59°   Ceiling: Unl
Heat Index: 59°   Visibility: 10mi
Dew Point: 33°   Wind: 15mph
Humidity: 38%   Direction: 160°SSE
Pressure: 29.78"   Gusts: 24mph
Location:  44.7595°N, 117.716°W
Report Text: KBKE 311753Z AUTO 16013G21KT 10SM SCT100 15/01 A2978 RMK AO2 SLP080 T01500006 10150 20078 50003
Loading
Personal Weather Stations






























Interactive Weather Map
Tropical Storm Tracking
New forecast layout! Learn more

10-Day Weather Forecast

Advertisements
Track Severe Weather on mobile